Time;durP1;ratioP1;P1;durP2;ratioP2;P2;SDS_P1;SDS_P2;PMS_P1;PMS_P2;Temp;Humidity;BMP_temperature;BMP_pressure;BME280_temperature;BME280_humidity;BME280_pressure;Samples;Min_cycle;Max_cycle;Signal;HPM_P1;HPM_P2
2022/08/26 00:01:25;;;;;;;23.30;5.30;;;;;;;24.31;100.00;99341.66;5070004;28;20024;-72
2022/08/26 00:03:51;;;;;;;19.48;4.60;;;;;;;24.50;100.00;99336.34;5070500;28;20036;-73
2022/08/26 00:06:17;;;;;;;20.10;5.55;;;;;;;24.14;100.00;99310.44;5069023;28;20028;-71
2022/08/26 00:08:43;;;;;;;20.38;5.45;;;;;;;23.81;100.00;99304.03;5070049;28;20580;-71
2022/08/26 00:11:09;;;;;;;20.73;5.05;;;;;;;24.16;100.00;99348.31;5070062;28;20044;-71
2022/08/26 00:13:36;;;;;;;15.00;5.00;;;;;;;24.05;100.00;99338.94;5070268;28;20051;-71
2022/08/26 00:16:03;;;;;;;21.17;5.10;;;;;;;23.78;100.00;99325.88;5069364;28;20456;-72
2022/08/26 00:18:29;;;;;;;19.67;4.97;;;;;;;23.67;100.00;99291.50;5070868;28;20066;-71
2022/08/26 00:20:54;;;;;;;21.08;5.40;;;;;;;23.65;100.00;99335.75;5073786;28;20024;-71
2022/08/26 00:23:20;;;;;;;23.85;4.82;;;;;;;23.67;100.00;99318.25;5073809;28;20489;-71
2022/08/26 00:25:46;;;;;;;23.02;5.10;;;;;;;23.94;100.00;99322.69;5073640;28;20028;-71
2022/08/26 00:28:12;;;;;;;24.08;5.43;;;;;;;23.69;100.00;99299.97;5073905;28;20552;-73
2022/08/26 00:30:38;;;;;;;20.88;4.90;;;;;;;23.64;100.00;99302.16;5071913;28;20036;-72
2022/08/26 00:33:04;;;;;;;21.85;5.40;;;;;;;23.62;100.00;99306.69;5073502;28;20040;-71
2022/08/26 00:35:31;;;;;;;26.63;5.85;;;;;;;23.15;100.00;99222.81;5073310;28;20036;-71
2022/08/26 00:37:58;;;;;;;24.50;5.15;;;;;;;23.52;100.00;99282.53;5073121;28;20503;-71
2022/08/26 00:40:30;;;;;;;18.88;5.03;;;;;;;23.39;100.00;99272.47;5073446;28;20035;-72
2022/08/26 00:42:56;;;;;;;22.45;5.07;;;;;;;23.56;100.00;99226.78;5072298;28;20021;-72
2022/08/26 00:45:22;;;;;;;20.73;5.13;;;;;;;23.93;100.00;99293.28;5072307;28;20052;-71
2022/08/26 00:48:02;;;;;;;17.45;4.57;;;;;;;23.73;100.00;99260.56;5073095;28;20064;-72
2022/08/26 00:50:34;;;;;;;20.65;4.78;;;;;;;24.26;100.00;99298.91;5071673;28;20400;-71
2022/08/26 00:53:03;;;;;;;21.05;5.15;;;;;;;24.01;100.00;99292.56;5073106;28;20040;-71
2022/08/26 00:55:37;;;;;;;17.17;4.82;;;;;;;23.92;100.00;99223.31;5073288;28;20123;-71
2022/08/26 00:58:04;;;;;;;19.33;4.00;;;;;;;24.28;100.00;99287.41;5073152;28;20035;-70
2022/08/26 01:00:30;;;;;;;21.88;4.60;;;;;;;24.37;100.00;99296.06;5073130;28;20028;-71
2022/08/26 01:02:59;;;;;;;20.58;4.20;;;;;;;24.12;100.00;99243.06;5070878;28;20032;-71
2022/08/26 01:05:25;;;;;;;20.10;4.00;;;;;;;24.30;100.00;99245.66;5072882;28;20033;-71
2022/08/26 01:07:50;;;;;;;19.20;4.10;;;;;;;24.42;100.00;99293.88;5073049;28;20051;-71
2022/08/26 01:10:19;;;;;;;22.77;4.32;;;;;;;24.51;100.00;99292.97;5072598;28;20502;-71
2022/08/26 01:12:55;;;;;;;24.98;3.83;;;;;;;24.63;100.00;99281.38;5071643;28;20040;-70
2022/08/26 01:15:26;;;;;;;19.63;4.00;;;;;;;24.65;100.00;99285.47;5072630;28;20060;-70
2022/08/26 01:17:52;;;;;;;22.13;3.95;;;;;;;24.89;100.00;99282.31;5071327;28;20032;-71
2022/08/26 01:20:21;;;;;;;20.50;3.78;;;;;;;25.10;100.00;99285.38;5073068;28;20032;-72
2022/08/26 01:23:13;;;;;;;15.48;3.80;;;;;;;25.14;99.42;99278.91;5072994;28;20032;-71
2022/08/26 01:25:47;;;;;;;26.85;4.10;;;;;;;24.79;97.05;99213.94;5067803;28;20033;-72
2022/08/26 01:28:18;;;;;;;17.67;3.42;;;;;;;25.11;98.32;99249.78;5070973;28;20037;-71
2022/08/26 01:30:46;;;;;;;16.92;3.55;;;;;;;25.18;100.00;99275.03;5072259;28;20033;-71
2022/08/26 01:33:16;;;;;;;23.52;4.10;;;;;;;25.12;99.29;99247.00;5072426;28;20052;-72
2022/08/26 01:35:43;;;;;;;20.70;3.90;;;;;;;25.00;99.83;99230.00;5072474;28;20035;-71
2022/08/26 01:38:09;;;;;;;20.27;3.65;;;;;;;25.24;98.79;99251.00;5072095;28;20078;-74
2022/08/26 01:40:38;;;;;;;17.73;3.63;;;;;;;25.07;99.63;99238.84;5072357;28;20096;-72
2022/08/26 01:43:07;;;;;;;24.38;4.18;;;;;;;25.31;100.00;99278.06;5071970;28;20036;-70
2022/08/26 01:45:35;;;;;;;16.65;3.97;;;;;;;25.40;100.00;99284.13;5070504;28;20078;-70
2022/08/26 01:48:06;;;;;;;22.15;4.05;;;;;;;25.20;100.00;99260.06;5071926;28;20418;-71
2022/08/26 01:50:34;;;;;;;22.60;3.85;;;;;;;25.18;99.57;99233.38;5071547;28;20033;-70
2022/08/26 01:53:05;;;;;;;18.27;3.80;;;;;;;25.49;100.00;99276.22;5071985;28;20139;-71
2022/08/26 01:55:33;;;;;;;17.02;3.97;;;;;;;25.50;99.64;99277.88;5071980;28;20025;-71
2022/08/26 01:58:03;;;;;;;19.20;3.42;;;;;;;25.34;99.80;99233.50;5072188;28;20040;-72
2022/08/26 02:00:29;;;;;;;17.70;3.72;;;;;;;25.56;99.14;99277.25;5072022;28;20150;-72
2022/08/26 02:05:41;;;;;;;17.15;3.47;;;;;;;25.55;100.00;99270.41;5071946;28;20562;-71
2022/08/26 02:08:07;;;;;;;21.95;3.70;;;;;;;25.54;100.00;99262.75;5071938;28;20056;-71
2022/08/26 02:10:32;;;;;;;22.38;3.33;;;;;;;25.57;100.00;99273.66;5071005;28;20090;-72
2022/08/26 02:12:58;;;;;;;15.27;3.30;;;;;;;25.44;99.70;99243.81;5071862;28;20052;-71
2022/08/26 02:15:23;;;;;;;20.42;3.80;;;;;;;25.43;100.00;99223.97;5071473;28;20046;-71
2022/08/26 02:17:50;;;;;;;21.77;3.80;;;;;;;25.58;100.00;99275.31;5071608;28;20029;-72
2022/08/26 02:20:18;;;;;;;19.33;3.78;;;;;;;25.45;100.00;99228.03;5071238;28;20482;-71
2022/08/26 02:22:45;;;;;;;22.50;3.85;;;;;;;25.56;100.00;99266.84;5071067;28;20033;-71
2022/08/26 02:25:17;;;;;;;19.90;3.35;;;;;;;25.69;100.00;99274.22;5071630;28;20036;-70
2022/08/26 02:27:42;;;;;;;17.05;3.45;;;;;;;25.45;100.00;99264.47;5071046;28;20036;-70
2022/08/26 02:30:10;;;;;;;22.63;3.33;;;;;;;25.66;100.00;99275.34;5071500;28;20449;-70
2022/08/26 02:32:37;;;;;;;21.65;3.67;;;;;;;25.59;100.00;99253.50;5071112;28;20036;-70
2022/08/26 02:35:03;;;;;;;26.00;3.88;;;;;;;25.47;100.00;99244.31;5071198;28;20033;-71
2022/08/26 02:37:30;;;;;;;15.15;3.20;;;;;;;25.42;100.00;99241.38;5070728;28;20089;-71
2022/08/26 02:39:55;;;;;;;13.88;3.20;;;;;;;25.37;100.00;99220.19;5071121;28;20523;-71
2022/08/26 02:42:21;;;;;;;19.52;3.58;;;;;;;25.46;100.00;99247.91;5070805;28;20115;-71
2022/08/26 02:44:47;;;;;;;26.27;3.35;;;;;;;25.67;100.00;99294.41;5071053;28;20111;-71
2022/08/26 02:47:14;;;;;;;17.75;3.25;;;;;;;25.68;100.00;99283.81;5069587;28;20483;-71
2022/08/26 02:49:42;;;;;;;16.98;3.15;;;;;;;25.70;100.00;99294.91;5069827;28;20109;-71
2022/08/26 02:52:08;;;;;;;21.38;3.58;;;;;;;25.60;100.00;99283.78;5070756;28;20040;-71
2022/08/26 02:54:33;;;;;;;17.83;3.60;;;;;;;25.31;100.00;99241.63;5070539;28;20025;-73
2022/08/26 02:56:58;;;;;;;15.82;3.60;;;;;;;25.32;100.00;99247.63;5071267;28;20028;-71
2022/08/26 02:59:24;;;;;;;18.98;4.03;;;;;;;25.31;100.00;99248.59;5071073;28;20030;-72
2022/08/26 03:01:50;;;;;;;19.15;4.10;;;;;;;25.46;100.00;99281.75;5069387;28;20044;-71
2022/08/26 03:04:16;;;;;;;16.85;4.20;;;;;;;25.31;100.00;99233.00;5070982;28;20075;-71
2022/08/26 03:06:41;;;;;;;19.48;4.30;;;;;;;25.52;100.00;99282.91;5071095;28;20024;-71
2022/08/26 03:09:07;;;;;;;20.05;3.88;;;;;;;25.52;100.00;99282.91;5070687;28;20020;-71
2022/08/26 03:11:34;;;;;;;21.67;3.80;;;;;;;25.45;100.00;99285.31;5069187;28;20537;-75
2022/08/26 03:14:00;;;;;;;17.75;3.80;;;;;;;25.43;100.00;99279.44;5070566;28;20025;-70
2022/08/26 03:16:26;;;;;;;24.38;3.60;;;;;;;25.39;100.00;99274.69;5070609;28;20032;-71
2022/08/26 03:18:52;;;;;;;19.08;3.17;;;;;;;25.46;100.00;99292.16;5070969;28;20035;-71
2022/08/26 03:21:18;;;;;;;15.88;3.67;;;;;;;25.49;100.00;99291.03;5070394;28;20032;-70
2022/08/26 03:23:44;;;;;;;18.20;5.13;;;;;;;25.54;100.00;99288.78;5070848;28;20058;-71
2022/08/26 03:26:13;;;;;;;23.50;5.57;;;;;;;25.41;100.00;99263.19;5071125;28;20119;-71
2022/08/26 03:30:38;;;;;;;19.90;4.20;;;;;;;25.25;100.00;99257.84;5069609;28;20029;-71
2022/08/26 03:31:24;;;;;;;21.73;4.38;;;;;;;25.31;100.00;99256.41;5062662;28;20075;-69
2022/08/26 03:33:50;;;;;;;19.25;3.63;;;;;;;25.34;100.00;99267.31;5070014;28;20137;-70
2022/08/26 03:36:15;;;;;;;17.65;3.38;;;;;;;25.59;100.00;99292.56;5070175;28;20510;-70
2022/08/26 03:38:41;;;;;;;21.15;3.50;;;;;;;25.57;100.00;99301.50;5070327;28;20035;-69
2022/08/26 03:41:08;;;;;;;19.95;3.40;;;;;;;25.25;100.00;99249.22;5070160;28;20017;-72
2022/08/26 03:43:33;;;;;;;13.88;3.53;;;;;;;25.52;100.00;99304.56;5069162;28;20071;-70
2022/08/26 03:46:04;;;;;;;23.08;3.47;;;;;;;25.22;100.00;99223.47;5069204;28;20133;-71
2022/08/26 03:48:29;;;;;;;16.20;3.17;;;;;;;25.47;100.00;99274.75;5068924;28;20112;-72
2022/08/26 03:50:55;;;;;;;17.38;3.88;;;;;;;25.43;100.00;99266.41;5070571;28;20127;-69
2022/08/26 03:53:20;;;;;;;14.10;3.33;;;;;;;25.68;100.00;99303.84;5069508;28;20033;-71
2022/08/26 03:55:46;;;;;;;21.25;3.40;;;;;;;25.35;100.00;99258.56;5073677;28;20055;-70
2022/08/26 03:58:11;;;;;;;21.77;3.23;;;;;;;25.53;100.00;99259.31;4721626;28;10000379;-70
2022/08/26 04:00:37;;;;;;;16.73;2.97;;;;;;;25.60;100.00;99304.63;5073601;28;20024;-74
2022/08/26 04:03:02;;;;;;;22.52;3.90;;;;;;;25.75;100.00;99310.06;5071353;28;20532;-70
2022/08/26 04:05:28;;;;;;;22.98;3.90;;;;;;;25.82;100.00;99315.47;5071769;28;20028;-69
2022/08/26 04:07:53;;;;;;;20.02;3.30;;;;;;;25.57;98.92;99273.66;5071399;28;20043;-71
2022/08/26 04:10:23;;;;;;;17.55;3.08;;;;;;;25.73;99.05;99307.59;5071756;28;20379;-70
2022/08/26 04:12:50;;;;;;;18.38;3.53;;;;;;;25.56;96.99;99269.44;5071758;28;20038;-69
2022/08/26 04:15:17;;;;;;;17.75;3.55;;;;;;;25.78;94.54;99286.31;5071255;28;20115;-71
2022/08/26 04:17:42;;;;;;;14.88;3.38;;;;;;;25.99;93.35;99319.78;5071975;28;20028;-72
2022/08/26 04:20:09;;;;;;;19.52;3.80;;;;;;;26.00;91.30;99316.19;5071308;28;20040;-72
2022/08/26 04:22:34;;;;;;;16.35;3.83;;;;;;;25.83;92.18;99294.44;5071394;28;20032;-71
2022/08/26 04:25:00;;;;;;;16.90;3.78;;;;;;;25.96;91.73;99315.69;5069769;28;20460;-71
2022/08/26 04:27:26;;;;;;;14.60;3.63;;;;;;;25.77;92.91;99300.28;5071914;28;20483;-74
2022/08/26 04:29:51;;;;;;;16.48;3.53;;;;;;;25.77;92.72;99303.72;5071074;28;20028;-73
2022/08/26 04:32:17;;;;;;;18.38;3.72;;;;;;;25.98;92.86;99337.19;5069798;28;20483;-72
2022/08/26 04:34:42;;;;;;;16.17;3.70;;;;;;;25.72;93.86;99297.34;5071359;28;20119;-72
2022/08/26 04:37:08;;;;;;;19.15;3.80;;;;;;;25.86;91.32;99303.75;5071438;28;20784;-73
2022/08/26 04:39:34;;;;;;;27.30;3.83;;;;;;;26.07;93.01;99346.72;5071364;28;20029;-73
2022/08/26 04:42:00;;;;;;;18.00;3.33;;;;;;;26.19;92.58;99348.06;5071605;28;20025;-73
2022/08/26 04:44:28;;;;;;;14.98;3.60;;;;;;;26.04;92.57;99331.38;5070770;28;20029;-73
2022/08/26 04:46:54;;;;;;;13.60;3.08;;;;;;;25.88;91.79;99307.03;5071542;28;20114;-74
2022/08/26 04:49:20;;;;;;;15.38;3.63;;;;;;;26.29;88.04;99353.16;5071976;28;20029;-77
2022/08/26 04:51:46;;;;;;;19.17;3.88;;;;;;;26.34;87.39;99343.91;5069358;28;20029;-72
2022/08/26 04:54:12;;;;;;;17.70;3.67;;;;;;;26.09;88.40;99310.88;5069658;28;20476;-73
2022/08/26 04:56:42;;;;;;;19.73;3.85;;;;;;;26.28;92.00;99357.56;5070599;28;20032;-74
2022/08/26 04:59:16;;;;;;;17.83;4.22;;;;;;;25.95;97.58;99321.06;5071310;28;20037;-72
2022/08/26 05:01:47;;;;;;;28.20;7.25;;;;;;;25.77;100.00;99315.91;5070383;28;20032;-73
2022/08/26 05:04:13;;;;;;;23.92;5.00;;;;;;;25.72;100.00;99333.81;5069639;28;20131;-73
2022/08/26 05:06:38;;;;;;;21.63;3.75;;;;;;;25.73;100.00;99362.31;5070142;28;20119;-72
2022/08/26 05:09:05;;;;;;;27.35;4.80;;;;;;;25.99;100.00;99383.13;5069458;28;20041;-72
2022/08/26 05:11:30;;;;;;;26.15;5.53;;;;;;;25.64;100.00;99359.81;5069741;28;20048;-72
2022/08/26 05:13:56;;;;;;;19.35;4.15;;;;;;;25.89;100.00;99389.44;5070052;28;20045;-72
2022/08/26 05:16:21;;;;;;;28.98;4.05;;;;;;;26.02;100.00;99388.03;5070093;28;20029;-72
2022/08/26 05:18:46;;;;;;;23.98;4.45;;;;;;;25.99;100.00;99390.94;5070408;28;20048;-72
2022/08/26 05:21:27;;;;;;;26.35;4.47;;;;;;;25.44;100.00;99327.13;5069163;28;20048;-72
2022/08/26 05:23:55;;;;;;;28.67;4.80;;;;;;;25.30;100.00;99348.47;5067199;28;20812;-73
2022/08/26 05:26:24;;;;;;;23.65;5.35;;;;;;;25.32;100.00;99336.94;5051081;28;20029;-73
2022/08/26 05:28:51;;;;;;;28.80;5.57;;;;;;;25.24;100.00;99381.13;5049773;28;20029;-73
2022/08/26 05:31:19;;;;;;;17.17;6.10;;;;;;;24.88;100.00;99377.72;5049909;28;20044;-74
2022/08/26 05:33:45;;;;;;;16.90;6.32;;;;;;;24.87;100.00;99351.88;5050294;28;20033;-74
2022/08/26 05:36:17;;;;;;;22.67;6.30;;;;;;;24.87;100.00;99359.66;5050449;28;20029;-73
2022/08/26 05:38:43;;;;;;;17.10;5.75;;;;;;;25.27;100.00;99373.03;5051262;28;20036;-73
2022/08/26 05:41:26;;;;;;;20.88;5.60;;;;;;;25.20;100.00;99347.75;5050384;28;20037;-73
2022/08/26 05:43:51;;;;;;;19.35;5.40;;;;;;;25.64;100.00;99378.88;5050339;28;20563;-74
2022/08/26 05:46:17;;;;;;;21.80;5.07;;;;;;;25.35;100.00;99357.47;5049351;28;20029;-73
2022/08/26 05:48:43;;;;;;;23.55;4.88;;;;;;;25.44;100.00;99374.00;5049635;28;20525;-73
2022/08/26 05:51:10;;;;;;;17.73;4.63;;;;;;;25.99;100.00;99395.34;5048535;28;20067;-74
2022/08/26 05:53:37;;;;;;;32.10;11.10;;;;;;;25.63;100.00;99379.03;5049613;28;20063;-73
2022/08/26 05:56:04;;;;;;;28.73;8.40;;;;;;;25.66;100.00;99394.34;5049462;28;20094;-72
2022/08/26 05:58:30;;;;;;;38.13;12.55;;;;;;;25.16;100.00;99367.22;5083153;28;20036;-73
2022/08/26 06:01:03;;;;;;;27.88;11.05;;;;;;;25.69;100.00;99373.22;5088852;28;20040;-74
2022/08/26 06:03:30;;;;;;;34.05;11.85;;;;;;;25.54;100.00;99356.50;5088959;28;20056;-71
2022/08/26 06:05:56;;;;;;;28.75;10.32;;;;;;;26.07;100.00;99398.03;5105983;28;20042;-73
2022/08/26 06:08:22;;;;;;;29.88;11.45;;;;;;;26.48;100.00;99360.72;5089808;28;20494;-73
2022/08/26 06:10:54;;;;;;;41.72;11.88;;;;;;;26.34;100.00;99371.75;5089974;28;20055;-73
2022/08/26 06:13:22;;;;;;;27.08;8.35;;;;;;;26.47;100.00;99416.44;5089165;28;20036;-73
2022/08/26 06:15:49;;;;;;;31.50;9.50;;;;;;;26.50;100.00;99401.28;5088444;28;20032;-75
2022/08/26 06:18:22;;;;;;;27.33;8.43;;;;;;;27.58;100.00;99405.56;5090101;28;20016;-74
2022/08/26 06:20:49;;;;;;;31.50;8.30;;;;;;;27.38;100.00;99350.25;5088985;28;20039;-73
2022/08/26 06:26:03;;;;;;;23.00;6.10;;;;;;;28.12;92.23;99397.81;5070800;28;20101;-75
2022/08/26 06:28:29;;;;;;;20.95;5.60;;;;;;;27.75;91.74;99376.63;5086039;28;20044;-74
2022/08/26 06:30:54;;;;;;;27.67;6.15;;;;;;;28.24;100.00;99419.19;5075579;28;20043;-74
2022/08/26 06:33:21;;;;;;;32.67;7.80;;;;;;;28.43;99.49;99397.84;5066749;28;20613;-73
2022/08/26 06:35:49;;;;;;;22.48;7.03;;;;;;;27.58;98.74;99382.88;5068159;28;20483;-72
2022/08/26 06:38:14;;;;;;;26.23;6.72;;;;;;;28.46;91.26;99420.22;5070651;28;20029;-74
2022/08/26 06:40:50;;;;;;;28.65;6.60;;;;;;;28.37;90.99;99419.44;5068992;28;20111;-73
2022/08/26 06:43:18;;;;;;;22.30;4.85;;;;;;;28.60;78.11;99398.63;5068886;28;20094;-73
2022/08/26 06:45:44;;;;;;;21.23;4.93;;;;;;;28.56;79.04;99405.19;5068297;28;20074;-74
2022/08/26 06:48:12;;;;;;;21.02;4.82;;;;;;;28.47;79.50;99380.00;5068587;28;20043;-72
2022/08/26 06:50:37;;;;;;;19.90;4.80;;;;;;;28.57;85.41;99372.78;5067795;28;20097;-73
2022/08/26 06:53:03;;;;;;;20.90;4.28;;;;;;;28.97;75.01;99411.78;5063322;28;20033;-73
2022/08/26 06:55:28;;;;;;;19.83;4.72;;;;;;;29.07;74.16;99407.97;5050947;28;20438;-72
2022/08/26 06:57:56;;;;;;;19.75;4.30;;;;;;;28.99;71.37;99368.75;5066592;28;20039;-72
2022/08/26 07:00:22;;;;;;;22.20;5.25;;;;;;;28.72;73.41;99384.94;5071718;28;20028;-73
2022/08/26 07:03:03;;;;;;;18.85;4.28;;;;;;;28.82;69.10;99351.50;5071279;28;20036;-73
2022/08/26 07:05:28;;;;;;;21.85;4.40;;;;;;;29.25;68.11;99375.44;5071428;28;20032;-73
2022/08/26 07:07:56;;;;;;;33.50;4.90;;;;;;;29.39;70.27;99411.34;5071696;28;20379;-72
2022/08/26 07:10:23;;;;;;;22.10;5.25;;;;;;;29.45;80.95;99423.75;5069650;28;20135;-72
2022/08/26 07:12:49;;;;;;;22.35;4.88;;;;;;;29.54;71.29;99413.00;5071531;28;20033;-73
2022/08/26 07:15:15;;;;;;;19.73;5.15;;;;;;;29.50;79.79;99418.78;5071622;28;20089;-73
2022/08/26 07:17:41;;;;;;;25.98;5.70;;;;;;;29.24;84.15;99389.53;5071109;28;20412;-72
2022/08/26 07:20:07;;;;;;;19.23;4.65;;;;;;;28.80;66.70;99423.38;5071521;28;20028;-72
2022/08/26 07:22:34;;;;;;;19.60;4.18;;;;;;;28.95;67.48;99432.94;5069935;28;20041;-72
2022/08/26 07:24:59;;;;;;;20.50;4.35;;;;;;;28.69;71.31;99387.91;5069860;28;20023;-72
2022/08/26 07:27:25;;;;;;;27.45;4.70;;;;;;;28.82;66.52;99387.38;5073323;28;20054;-72
2022/08/26 07:29:55;;;;;;;19.20;3.78;;;;;;;28.99;68.21;99415.06;5075423;28;20024;-72
2022/08/26 07:32:20;;;;;;;23.38;4.07;;;;;;;28.67;64.17;99395.13;5073907;28;20041;-72
2022/08/26 07:34:46;;;;;;;22.10;3.97;;;;;;;28.78;60.47;99409.63;5075201;28;20024;-73
2022/08/26 07:37:11;;;;;;;21.55;4.10;;;;;;;28.82;59.13;99396.00;5074804;28;20485;-72
2022/08/26 07:39:37;;;;;;;20.98;4.30;;;;;;;29.12;59.12;99399.56;5074231;28;20033;-72
2022/08/26 07:42:05;;;;;;;21.70;3.92;;;;;;;29.04;60.30;99433.66;5074067;28;20063;-71
2022/08/26 07:44:31;;;;;;;27.35;4.75;;;;;;;28.97;67.21;99433.56;5074984;28;20532;-71
2022/08/26 07:46:57;;;;;;;22.05;4.30;;;;;;;28.86;63.60;99431.31;5074638;28;20033;-72
2022/08/26 07:49:25;;;;;;;17.67;3.92;;;;;;;28.63;61.79;99420.00;5073496;28;20119;-72
2022/08/26 07:51:51;;;;;;;25.40;4.40;;;;;;;28.83;62.60;99404.69;5074217;28;20032;-72
2022/08/26 07:54:17;;;;;;;23.65;4.07;;;;;;;28.73;60.67;99391.81;5073842;28;20016;-72
2022/08/26 07:56:43;;;;;;;22.67;4.97;;;;;;;28.55;59.42;99409.59;5073368;28;20509;-72
2022/08/26 07:59:16;;;;;;;21.85;4.28;;;;;;;28.71;62.06;99437.47;5073206;28;20131;-72
2022/08/26 08:01:42;;;;;;;21.20;5.03;;;;;;;29.01;60.79;99431.41;5072778;28;20524;-72
2022/08/26 08:04:07;;;;;;;18.13;5.15;;;;;;;28.79;59.20;99396.38;5074358;28;20169;-73
2022/08/26 08:06:40;;;;;;;15.23;4.55;;;;;;;28.76;60.29;99406.38;5074485;28;20475;-72
2022/08/26 08:09:06;;;;;;;18.75;4.30;;;;;;;28.92;57.86;99403.66;5074234;28;20040;-72
2022/08/26 08:11:32;;;;;;;19.67;4.45;;;;;;;29.03;58.23;99400.63;5073601;28;20059;-72
2022/08/26 08:14:00;;;;;;;20.33;4.50;;;;;;;28.27;59.88;99422.25;5072989;28;20024;-73
2022/08/26 08:16:27;;;;;;;23.10;4.70;;;;;;;28.58;58.64;99445.06;5073765;28;20033;-72
2022/08/26 08:18:55;;;;;;;15.80;3.90;;;;;;;28.86;60.21;99433.16;5070482;28;20093;-72
2022/08/26 08:21:25;;;;;;;17.10;4.13;;;;;;;28.51;56.61;99394.34;5072078;28;20028;-71
2022/08/26 08:23:52;;;;;;;17.08;4.30;;;;;;;28.73;59.79;99444.16;5071211;28;20143;-72
2022/08/26 08:26:18;;;;;;;19.45;4.03;;;;;;;28.46;61.27;99401.91;5073544;28;20502;-72
2022/08/26 08:28:45;;;;;;;23.55;4.60;;;;;;;28.69;61.86;99448.13;5074109;28;20029;-73
2022/08/26 08:31:18;;;;;;;18.92;4.63;;;;;;;28.47;61.50;99414.00;5074115;28;20452;-72
2022/08/26 08:33:43;;;;;;;16.48;4.32;;;;;;;28.51;62.75;99421.34;5073032;28;20038;-71
2022/08/26 08:36:09;;;;;;;18.83;4.43;;;;;;;28.54;61.84;99379.16;5073858;28;20029;-72
2022/08/26 08:38:34;;;;;;;15.77;4.28;;;;;;;28.35;64.76;99457.22;5073281;28;20479;-72
2022/08/26 08:41:00;;;;;;;18.25;4.20;;;;;;;28.46;67.27;99452.44;5073645;28;20029;-72
2022/08/26 08:43:38;;;;;;;19.92;4.40;;;;;;;28.14;70.04;99455.16;4370968;28;10000979;-73
2022/08/26 08:46:11;;;;;;;16.23;4.35;;;;;;;28.00;70.15;99450.63;5081153;28;20044;-69
2022/08/26 08:48:42;;;;;;;17.52;4.70;;;;;;;27.96;68.81;99441.47;5091131;28;20031;-70
2022/08/26 08:51:22;;;;;;;;;;;;;;;28.14;69.31;99456.00;5091255;28;20576;-70
2022/08/26 08:53:50;;;;;;;21.40;4.93;;;;;;;28.43;68.11;99439.69;5089453;28;20728;-71
2022/08/26 08:56:22;;;;;;;20.08;5.03;;;;;;;29.00;62.77;99443.69;5089561;28;20043;-71
2022/08/26 08:59:02;;;;;;;19.05;4.85;;;;;;;28.72;65.96;99450.38;5089460;28;20037;-70
2022/08/26 09:01:49;;;;;;;23.30;4.57;;;;;;;28.24;69.92;99447.94;5089725;28;20441;-70
2022/08/26 09:04:33;;;;;;;26.27;4.63;;;;;;;28.43;69.84;99442.31;5089071;28;20395;-74
2022/08/26 09:07:01;;;;;;;17.02;4.32;;;;;;;28.97;67.84;99403.94;5071062;28;20042;-71
2022/08/26 09:09:51;;;;;;;17.60;4.20;;;;;;;28.39;66.53;99455.88;5072099;28;20036;-72
2022/08/26 09:12:23;;;;;;;17.52;4.78;;;;;;;28.11;70.34;99413.66;5091016;28;20048;-71
2022/08/26 09:14:50;;;;;;;24.98;4.78;;;;;;;28.26;70.18;99438.13;5090016;28;20555;-70
2022/08/26 09:17:45;;;;;;;17.60;4.85;;;;;;;28.19;70.29;99405.78;5076520;28;20058;-72
2022/08/26 09:20:37;;;;;;;18.95;5.20;;;;;;;28.45;71.21;99458.66;5065912;28;20505;-71
2022/08/26 09:23:02;;;;;;;16.90;5.00;;;;;;;27.57;80.04;99428.28;5071049;28;20771;-71
2022/08/26 09:25:28;;;;;;;17.75;5.13;;;;;;;27.24;82.71;99423.97;5072253;28;20024;-73
2022/08/26 09:27:53;;;;;;;18.05;4.88;;;;;;;27.47;81.80;99443.31;5071808;28;20115;-73
2022/08/26 09:30:28;;;;;;;19.88;4.90;;;;;;;27.76;79.23;99445.41;5071456;28;20036;-73
2022/08/26 09:33:00;;;;;;;16.33;5.10;;;;;;;27.68;80.59;99448.84;5070238;28;20036;-71
2022/08/26 09:35:30;;;;;;;18.63;4.78;;;;;;;27.55;82.19;99430.25;5072227;28;20111;-70
2022/08/26 09:37:55;;;;;;;14.63;4.57;;;;;;;27.67;84.84;99449.00;5072101;28;20513;-71
2022/08/26 09:40:27;;;;;;;18.25;4.85;;;;;;;28.04;85.11;99439.66;5071910;28;20506;-72
2022/08/26 09:43:08;;;;;;;22.60;4.75;;;;;;;27.74;84.70;99439.50;5072016;28;20035;-70
2022/08/26 09:45:34;;;;;;;19.02;5.05;;;;;;;27.67;85.71;99430.72;5072212;28;20032;-72
2022/08/26 09:48:01;;;;;;;20.60;4.40;;;;;;;27.48;91.51;99399.69;5071781;28;20082;-72
2022/08/26 09:50:31;;;;;;;20.58;4.80;;;;;;;27.63;90.82;99430.25;5069411;28;20070;-72
2022/08/26 09:53:24;;;;;;;20.83;5.30;;;;;;;27.42;93.72;99430.72;5071793;28;20059;-71
2022/08/26 09:56:08;;;;;;;20.52;4.47;;;;;;;27.79;88.67;99424.16;5071471;28;20115;-71
2022/08/26 09:58:37;;;;;;;18.73;4.50;;;;;;;27.49;89.02;99411.78;5071847;28;20166;-73
2022/08/26 10:01:06;;;;;;;18.92;4.43;;;;;;;27.75;86.04;99399.34;5070362;28;20066;-73
2022/08/26 10:03:34;;;;;;;19.95;4.90;;;;;;;27.27;90.15;99387.94;4708549;28;10000401;-72
2022/08/26 10:06:05;;;;;;;18.27;5.03;;;;;;;27.71;91.64;99417.13;5071886;28;20032;-73
2022/08/26 10:08:43;;;;;;;18.98;5.05;;;;;;;27.87;92.77;99421.53;5070927;28;20047;-73
2022/08/26 10:11:26;;;;;;;24.65;5.05;;;;;;;27.56;96.80;99424.03;5071608;28;20036;-72
2022/08/26 10:14:13;;;;;;;16.60;4.72;;;;;;;27.40;98.13;99418.78;5071896;28;20077;-73
2022/08/26 10:16:53;;;;;;;29.17;4.63;;;;;;;27.80;92.32;99425.78;5072223;28;20028;-70
2022/08/26 10:19:25;;;;;;;24.35;5.28;;;;;;;27.95;83.72;99427.59;5071838;28;20025;-71
2022/08/26 10:21:57;;;;;;;20.85;5.13;;;;;;;28.28;81.03;99415.25;5071787;28;20051;-73
2022/08/26 10:24:38;;;;;;;21.88;4.95;;;;;;;28.14;82.36;99382.78;5071801;28;20032;-73
2022/08/26 10:27:14;;;;;;;18.88;4.88;;;;;;;27.97;87.96;99415.16;5071351;28;20582;-72
2022/08/26 10:29:46;;;;;;;19.77;5.20;;;;;;;28.16;84.39;99420.03;5071538;28;20029;-72
2022/08/26 10:32:34;;;;;;;18.85;5.45;;;;;;;27.72;84.11;99413.56;5071888;28;20031;-73
2022/08/26 10:35:00;;;;;;;23.23;5.50;;;;;;;27.55;87.18;99403.28;5072083;28;20051;-73
2022/08/26 10:37:35;;;;;;;22.08;5.07;;;;;;;27.65;87.23;99423.06;5072228;28;20115;-72
2022/08/26 10:40:23;;;;;;;30.23;5.47;;;;;;;28.18;85.76;99417.25;5070800;28;20438;-73
2022/08/26 10:42:51;;;;;;;19.95;5.43;;;;;;;28.15;90.44;99430.63;5071708;28;20402;-72
2022/08/26 10:45:24;;;;;;;23.92;5.30;;;;;;;28.18;89.10;99412.00;5070680;28;20482;-71
2022/08/26 10:47:57;;;;;;;17.73;4.72;;;;;;;27.95;89.12;99364.84;5071857;28;20574;-72
2022/08/26 10:50:30;;;;;;;23.50;5.45;;;;;;;28.45;85.49;99395.03;5071980;28;20036;-72
2022/08/26 10:53:10;;;;;;;20.02;5.00;;;;;;;28.65;82.58;99430.31;5071738;28;20402;-72
2022/08/26 10:55:42;;;;;;;27.23;5.00;;;;;;;29.27;77.90;99420.63;5071640;28;20099;-72
2022/08/26 10:58:20;;;;;;;;;;;;;;;28.94;77.46;99420.00;5071738;28;20431;-73
2022/08/26 11:03:53;;;;;;;26.75;5.50;;;;;;;29.27;73.66;99408.34;5071469;28;20498;-73
2022/08/26 11:06:18;;;;;;;17.52;5.25;;;;;;;28.95;68.92;99411.16;5071810;28;20024;-72
2022/08/26 11:08:53;;;;;;;21.08;5.63;;;;;;;29.23;71.38;99380.88;5071467;28;20050;-73
2022/08/26 11:11:40;;;;;;;17.92;5.13;;;;;;;29.23;67.62;99407.06;5071662;28;20052;-73
2022/08/26 11:14:16;;;;;;;27.08;5.60;;;;;;;29.41;69.99;99373.50;5071359;28;20040;-73
2022/08/26 11:16:44;;;;;;;18.75;5.80;;;;;;;29.39;70.98;99406.09;5071666;28;20103;-74
2022/08/26 11:19:39;;;;;;;23.48;6.03;;;;;;;29.31;70.75;99414.03;5069902;28;20036;-72
2022/08/26 11:22:25;;;;;;;19.33;5.05;;;;;;;28.94;73.82;99415.56;5071403;28;20031;-73
2022/08/26 11:24:54;;;;;;;17.05;5.38;;;;;;;29.01;76.84;99403.44;5070050;28;20032;-72
2022/08/26 11:27:25;;;;;;;21.90;5.43;;;;;;;28.84;74.73;99407.13;5071442;28;20027;-72
2022/08/26 11:30:14;;;;;;;19.92;5.50;;;;;;;28.77;74.14;99406.19;5071113;28;20029;-72
2022/08/26 11:32:41;;;;;;;26.90;5.10;;;;;;;28.71;68.40;99422.59;5041992;28;20043;-73
2022/08/26 11:35:08;;;;;;;18.08;5.03;;;;;;;28.53;72.54;99418.56;5071188;28;20043;-72
2022/08/26 11:38:02;;;;;;;24.95;5.38;;;;;;;28.62;71.60;99410.53;5070922;28;20486;-72
2022/08/26 11:40:31;;;;;;;17.05;5.35;;;;;;;28.46;74.57;99412.38;5063550;28;20040;-73